Flight Track Log - Related Links

Times and Time Zones

All times are in EDT time to prevent confusion due to time zone crossing. See the DAL3672 flight status page for this flight to view local times or setup timezone preferences in your user account.

Time Position Orientation Groundspeed Altitude Reporting Facility
EDT Latitude Longitude Course Direction KTS MPH feet Rate Location/Type
01:14PM 42.9500 -71.4167 270° West 154 177 900  Level KA90
01:14PM 42.9833 -71.4000 20° North 194 223 2,900 2,167 Climbing KA90
01:15PM 43.0500 -71.3833 10° North 250 288 4,800 2,786 Climbing KA90
01:17PM 42.9500 -71.9445 270° West  Level FlightAware Approximate
01:17PM 43.1008 -71.4847 304° West 296 341 9,400  Level Boston Center
01:18PM 42.9501 -72.0735 270° West  Level FlightAware Approximate
01:18PM 43.1100 -71.5811 277° West 264 304 11,100  Level Boston Center
01:19PM 42.9500 -72.2026 270° West  Level FlightAware Approximate
01:19PM 43.1150 -71.7178 273° West 318 366 12,500  Level Boston Center
01:20PM 43.1200 -71.8342 273° West 349 402 14,000 1,750 Climbing Boston Center
01:21PM 43.1247 -71.9850 273° West 360 414 16,000 1,800 Climbing Boston Center
01:22PM 43.1272 -72.1100 272° West 366 421 17,600 1,550 Climbing Boston Center
01:23PM 43.1317 -72.2636 272° West 366 421 19,100 1,500 Climbing Boston Center
01:24PM 43.1361 -72.4031 273° West 366 421 20,600 1,250 Climbing Boston Center
01:25PM 43.1403 -72.5453 272° West 366 421 21,600 1,000 Climbing Boston Center
01:26PM 43.1419 -72.6906 271° West 373 429 22,600 1,000 Climbing Boston Center
01:27PM 43.1478 -72.8414 273° West 386 444 23,600 1,000 Climbing Boston Center
01:28PM 43.1494 -72.9922 271° West 391 450 24,600 1,000 Climbing Boston Center
01:29PM 43.1528 -73.1403 272° West 391 450 25,600 818 Climbing Boston Center
01:30PM 43.1539 -73.2883 271° West 391 450 26,400 773 Climbing Boston Center
01:31PM 43.1525 -73.4475 269° West 396 456 27,300 850 Climbing Boston Center
01:32PM 43.1553 -73.5956 272° West 396 456 28,100 773 Climbing Boston Center
01:33PM 43.1575 -73.7636 271° West 396 456 29,000 773 Climbing Boston Center
01:34PM 43.1594 -73.9400 271° West 401 461 29,800 650 Climbing Boston Center
01:35PM 43.1617 -74.0881 271° West 401 461 30,300 455 Climbing Boston Center
01:36PM 43.1614 -74.2389 270° West 401 461 30,800 545 Climbing Boston Center
01:37PM 43.1628 -74.4156 271° West 401 461 31,500 550 Climbing Boston Center
01:38PM 43.1644 -74.5494 271° West 401 461 31,900 250 Climbing Boston Center
01:39PM 43.1658 -74.7003 271° West 401 461 32,000 50 Climbing Boston Center
01:40PM 43.1647 -74.8542 269° West 406 467 32,000  Level Boston Center
01:41PM 43.1656 -75.0106 270° West 411 473 32,000  Level Boston Center
01:42PM 43.1658 -75.1731 270° West 417 480 32,000  Level Boston Center
01:43PM 43.1661 -75.3297 270° West 417 480 32,000  Level Boston Center
01:44PM 43.1661 -75.4919 270° West 417 480 32,000  Level Boston Center
01:45PM 43.1661 -75.6486 270° West 417 480 32,000  Level Boston Center
01:46PM 43.1656 -75.8081 270° West 417 480 32,000  Level Boston Center
01:47PM 43.1650 -75.9644 270° West 417 480 32,000  Level Boston Center
01:49PM 43.1564 -76.2483 268° West 416 479 32,000  Level Cleveland Center
01:50PM 43.1436 -76.4086 264° West 416 479 32,000  Level Cleveland Center
01:51PM 43.1283 -76.5633 262° West 428 493 32,000  Level Cleveland Center
01:52PM 43.1164 -76.7092 264° West 428 493 32,000  Level Cleveland Center
01:53PM 43.1028 -76.8664 263° West 428 493 32,000  Level Cleveland Center
01:54PM 43.0892 -77.0236 263° West 428 493 32,000  Level Cleveland Center
01:55PM 43.0731 -77.1839 262° West 428 493 32,000  Level Cleveland Center
01:56PM 43.0589 -77.3439 263° West 428 493 32,000  Level Cleveland Center
01:57PM 43.0444 -77.5008 263° West 428 493 32,000  Level Cleveland Center
01:58PM 43.0297 -77.6578 263° West 428 493 32,000  Level Cleveland Center
01:59PM 43.0150 -77.8175 263° West 428 493 32,000  Level Cleveland Center
02:00PM 42.9997 -77.9717 262° West 428 493 32,000  Level Cleveland Center
02:01PM 42.9781 -78.1228 259° West 423 487 32,000  Level Cleveland Center
02:02PM 42.9014 -78.2478 230° Southwest 411 473 32,000  Level Cleveland Center
02:03PM 42.8119 -78.3642 224° Southwest 426 490 32,000  Level Cleveland Center
02:04PM 42.7222 -78.4750 222° Southwest 431 496 32,000  Level Cleveland Center
02:05PM 42.6328 -78.5881 223° Southwest 442 509 32,000  Level Cleveland Center
02:06PM 42.5428 -78.7008 223° Southwest 442 509 32,000  Level Cleveland Center
02:07PM 42.4614 -78.8156 226° Southwest 437 503 32,000  Level Cleveland Center
02:08PM 42.4239 -78.9742 252° West 401 461 32,000  Level Cleveland Center
02:09PM 42.4406 -79.1203 279° West 378 435 32,000  Level Cleveland Center
02:10PM 42.4631 -79.2492 283° West 386 444 32,000  Level Cleveland Center
02:11PM 42.4875 -79.3894 283° West 386 444 32,000  Level Cleveland Center
02:12PM 42.5097 -79.5356 282° West 391 450 32,000  Level Cleveland Center
02:13PM 42.5317 -79.6786 282° West 391 450 32,000  Level Cleveland Center
02:14PM 42.5578 -79.8194 284° West 391 450 32,000  Level Cleveland Center
02:15PM 42.5731 -79.9631 278° West 391 450 32,000  Level Cleveland Center
02:16PM 42.5947 -80.1039 282° West 386 444 32,000 -250 Level Cleveland Center
02:17PM 42.6161 -80.2475 281° West 392 451 31,500 -750 Descending Cleveland Center
02:18PM 42.6372 -80.3997 281° West 402 463 30,500 -1,000 Descending Cleveland Center
02:19PM 42.6603 -80.5522 282° West 407 468 29,500 -1,000 Descending Cleveland Center
02:20PM 42.6811 -80.7075 280° West 407 468 28,500 -750 Descending Cleveland Center
02:21PM 42.7017 -80.8686 280° West 407 468 28,000 -250 Descending Cleveland Center
02:22PM 42.6928 -81.0211 266° West 407 468 28,000  Level Cleveland Center
02:23PM 42.6756 -81.1733 261° West 412 474 28,000  Level Cleveland Center
02:24PM 42.6578 -81.3258 261° West 412 474 28,000 -50 Level Cleveland Center
02:25PM 42.6400 -81.4778 261° West 412 474 27,900 -1,050 Descending Cleveland Center
02:26PM 42.6222 -81.6272 261° West 407 468 25,900 -2,100 Descending Cleveland Center
02:27PM 42.6042 -81.7736 261° West 402 463 23,700 -2,200 Descending Cleveland Center
02:28PM 42.5858 -81.9142 260° West 396 456 21,500 -2,200 Descending Cleveland Center
02:29PM 42.5675 -82.0547 260° West 390 449 19,300 -2,050 Descending Cleveland Center
02:30PM 42.5531 -82.1953 262° West 390 449 17,400 -2,080 Descending Cleveland Center
02:30PM 42.5483 -82.2319 260° West 377 434 16,700 -2,308 Descending Cleveland Center
02:31PM 42.5389 -82.3161 261° West 369 425 15,400 -2,082 Descending Cleveland Center
02:32PM 42.5222 -82.4481 260° West 348 400 13,300 -1,721 Descending Cleveland Center
02:33PM 42.4994 -82.5686 256° West 328 377 11,900 -1,240 Descending Cleveland Center
02:34PM 42.4619 -82.6744 244° Southwest 297 342 10,800 -1,286 Descending Cleveland Center
02:35PM 42.4372 -82.7775 252° West 292 336 9,200 -1,603 Descending Cleveland Center
02:36PM 42.4253 -82.8561 258° West 261 300 7,700 -1,730 Descending Cleveland Center
02:37PM 42.4086 -82.9567 257° West 258 297 6,000 -931 Descending Cleveland Center
02:38PM 42.3900 -83.0458 254° West 263 303 5,900 -787 Descending Cleveland Center
02:39PM 42.3711 -83.1464 256° West 254 292 4,400 -1,031 Descending Cleveland Center
02:40PM 42.3444 -83.2239 245° Southwest 207 238 3,700 -836 Descending Cleveland Center
02:41PM 42.3078 -83.2703 223° Southwest 170 196 2,700 -984 Descending Cleveland Center

Login

Don't have an account? Register now (free) for customized features, flight alerts, and more!